createdAt,value
2023-01-13T00:00:51.746Z,0.80
2023-01-13T00:03:53.814Z,1.02
2023-01-13T00:06:55.866Z,1.00
2023-01-13T00:09:57.626Z,1.20
2023-01-13T00:12:59.573Z,1.10
2023-01-13T00:16:15.785Z,1.30
2023-01-13T00:19:18.014Z,1.20
2023-01-13T00:22:20.100Z,1.27
2023-01-13T00:25:22.113Z,1.00
2023-01-13T00:28:25.130Z,1.10
2023-01-13T00:31:29.179Z,0.90
2023-01-13T00:34:31.300Z,0.90
2023-01-13T00:37:37.054Z,0.80
2023-01-13T00:40:39.124Z,0.60
2023-01-13T00:43:42.694Z,0.50
2023-01-13T00:46:44.991Z,0.68
2023-01-13T00:49:46.938Z,0.60
2023-01-13T00:52:48.911Z,0.50
2023-01-13T00:55:58.540Z,0.60
2023-01-13T00:59:04.229Z,0.60
2023-01-13T01:02:06.349Z,0.88
2023-01-13T01:05:08.975Z,0.80
2023-01-13T01:08:10.949Z,0.70
2023-01-13T01:11:28.114Z,0.63
2023-01-13T01:14:30.144Z,0.70
2023-01-13T01:17:32.076Z,0.73
2023-01-13T01:20:34.133Z,0.50
2023-01-13T01:23:37.365Z,0.60
2023-01-13T01:26:39.283Z,0.60
2023-01-13T01:29:41.001Z,0.50
2023-01-13T01:32:42.924Z,0.50
2023-01-13T01:35:45.044Z,0.65
2023-01-13T01:38:48.181Z,0.50
2023-01-13T01:42:08.712Z,0.70
2023-01-13T01:45:22.384Z,0.80
2023-01-13T01:48:24.466Z,0.70
2023-01-13T01:51:30.943Z,0.68
2023-01-13T01:54:39.566Z,0.77
2023-01-13T01:57:57.028Z,0.90
2023-01-13T02:01:07.149Z,0.68
2023-01-13T02:04:17.373Z,0.98
2023-01-13T02:07:24.052Z,0.80
2023-01-13T02:10:28.901Z,0.80
2023-01-13T02:13:31.203Z,0.68
2023-01-13T02:16:33.704Z,0.77
2023-01-13T02:20:13.129Z,0.98
2023-01-13T02:23:52.705Z,0.80
2023-01-13T02:27:34.643Z,0.90
2023-01-13T02:31:33.990Z,0.88
2023-01-13T02:35:00.643Z,1.00
2023-01-13T02:38:03.495Z,1.10
2023-01-13T02:41:31.326Z,1.40
2023-01-13T02:44:46.595Z,1.20
2023-01-13T02:47:50.741Z,1.40
2023-01-13T02:51:12.285Z,1.20
2023-01-13T02:54:20.011Z,1.20
2023-01-13T02:57:25.309Z,1.65
2023-01-13T03:00:28.743Z,1.23
2023-01-13T03:03:30.716Z,1.83
2023-01-13T03:07:06.361Z,1.58
2023-01-13T03:10:34.311Z,1.70
2023-01-13T03:13:45.530Z,1.90
2023-01-13T03:17:17.129Z,1.50
2023-01-13T03:20:32.551Z,1.92
2023-01-13T03:23:59.133Z,1.80
2023-01-13T03:27:03.960Z,2.38
2023-01-13T03:30:24.383Z,1.73
2023-01-13T03:33:31.656Z,1.98
2023-01-13T03:36:36.581Z,1.75
2023-01-13T03:39:43.976Z,1.90
2023-01-13T03:43:12.795Z,1.60
2023-01-13T03:46:23.864Z,1.45
2023-01-13T03:49:33.941Z,1.35
2023-01-13T03:52:40.497Z,1.07
2023-01-13T03:55:47.918Z,1.48
2023-01-13T03:58:52.761Z,1.40
2023-01-13T04:02:07.013Z,1.77
2023-01-13T04:05:10.778Z,1.67
2023-01-13T04:08:17.036Z,2.13
2023-01-13T04:11:26.723Z,1.60
2023-01-13T04:14:29.344Z,1.60
2023-01-13T04:17:32.149Z,1.48
2023-01-13T04:20:33.761Z,1.52
2023-01-13T04:23:35.581Z,1.75
2023-01-13T04:26:37.244Z,1.60
2023-01-13T04:29:39.037Z,1.98
2023-01-13T04:32:41.310Z,2.33
2023-01-13T04:35:44.902Z,2.30
2023-01-13T04:38:46.637Z,2.10
2023-01-13T04:42:04.032Z,1.90
2023-01-13T04:45:09.785Z,2.78
2023-01-13T04:48:11.966Z,2.05
2023-01-13T04:51:13.726Z,2.65
2023-01-13T04:54:16.321Z,2.00
2023-01-13T04:57:19.351Z,1.90
2023-01-13T05:00:23.216Z,2.10
2023-01-13T05:03:26.667Z,2.33
2023-01-13T05:06:28.385Z,2.00
2023-01-13T05:09:30.124Z,2.25
2023-01-13T05:12:50.794Z,1.90
2023-01-13T05:16:11.479Z,2.80
2023-01-13T05:19:13.487Z,2.00
2023-01-13T05:22:34.022Z,2.72
2023-01-13T05:25:39.643Z,1.83
2023-01-13T05:28:41.291Z,2.13
2023-01-13T05:31:42.875Z,2.40
2023-01-13T05:34:44.719Z,2.20
2023-01-13T05:37:46.795Z,2.40
2023-01-13T05:41:06.841Z,3.08
2023-01-13T05:44:08.498Z,2.40
2023-01-13T05:47:10.878Z,3.03
2023-01-13T05:50:12.593Z,2.30
2023-01-13T05:53:14.334Z,2.95
2023-01-13T05:56:18.163Z,3.05
2023-01-13T05:59:19.810Z,2.95
2023-01-13T06:02:21.712Z,3.10
2023-01-13T06:05:23.610Z,3.10
2023-01-13T06:08:26.255Z,2.50
2023-01-13T06:11:28.041Z,2.75
2023-01-13T06:14:40.220Z,2.22
2023-01-13T06:17:41.852Z,2.28
2023-01-13T06:20:43.542Z,1.73
2023-01-13T06:23:45.247Z,2.90
2023-01-13T06:26:46.930Z,1.95
2023-01-13T06:29:49.203Z,2.35
2023-01-13T06:32:55.516Z,2.47
2023-01-13T06:36:01.372Z,2.15
2023-01-13T06:39:04.854Z,2.05
2023-01-13T06:42:25.940Z,1.88
2023-01-13T06:48:35.121Z,1.77
2023-01-13T06:51:37.327Z,1.58
2023-01-13T06:54:38.954Z,1.60
2023-01-13T06:57:57.727Z,1.60
2023-01-13T07:01:01.181Z,1.00
2023-01-13T07:04:57.857Z,1.42
2023-01-13T07:08:31.497Z,1.40
2023-01-13T07:11:33.253Z,1.27
2023-01-13T07:14:54.293Z,1.27
2023-01-13T07:21:02.766Z,1.48
2023-01-13T07:24:04.622Z,1.02
2023-01-13T07:27:06.221Z,1.67
2023-01-13T07:30:08.760Z,1.30
2023-01-13T07:33:10.454Z,1.67
2023-01-13T07:36:12.527Z,1.80
2023-01-13T07:39:14.740Z,1.63
2023-01-13T07:42:36.451Z,1.30
2023-01-13T07:45:38.327Z,1.70
2023-01-13T07:48:40.340Z,1.38
2023-01-13T07:51:42.223Z,1.20
2023-01-13T07:54:43.812Z,1.38
2023-01-13T07:57:45.640Z,1.30
2023-01-13T08:00:47.431Z,1.30
2023-01-13T08:03:49.109Z,2.10
2023-01-13T08:06:50.770Z,1.73
2023-01-13T08:09:52.545Z,1.45
2023-01-13T08:13:12.782Z,1.40
2023-01-13T08:16:15.729Z,1.77
2023-01-13T08:19:17.806Z,1.50
2023-01-13T08:22:19.507Z,2.15
2023-01-13T08:25:21.081Z,1.77
2023-01-13T08:28:24.122Z,1.88
2023-01-13T08:31:26.067Z,2.00
2023-01-13T08:34:27.790Z,1.55
2023-01-13T08:37:29.335Z,2.00
2023-01-13T08:40:31.563Z,2.00
2023-01-13T08:43:33.203Z,2.53
2023-01-13T08:46:35.887Z,1.85
2023-01-13T08:49:37.685Z,1.80
2023-01-13T08:52:39.807Z,2.17
2023-01-13T08:55:41.635Z,1.90
2023-01-13T08:58:43.427Z,2.20
2023-01-13T09:01:45.773Z,1.73
2023-01-13T09:04:48.737Z,2.20
2023-01-13T09:07:50.401Z,1.90
2023-01-13T09:10:52.085Z,1.90
2023-01-13T09:13:54.108Z,2.17
2023-01-13T09:16:56.250Z,1.83
2023-01-13T09:19:57.915Z,1.85
2023-01-13T09:22:59.762Z,2.85
2023-01-13T09:26:01.356Z,1.95
2023-01-13T09:29:03.214Z,1.90
2023-01-13T09:32:05.524Z,1.85
2023-01-13T09:35:07.806Z,1.67
2023-01-13T09:38:09.491Z,2.17
2023-01-13T09:41:42.518Z,1.67
2023-01-13T09:44:57.986Z,2.08
2023-01-13T09:48:11.857Z,1.77
2023-01-13T09:51:24.484Z,1.92
2023-01-13T09:54:33.679Z,1.90
2023-01-13T09:57:38.099Z,1.77
2023-01-13T10:00:47.235Z,1.77
2023-01-13T10:03:49.649Z,1.83
2023-01-13T10:06:56.482Z,2.35
2023-01-13T10:09:59.667Z,2.13
2023-01-13T10:13:14.284Z,2.00
2023-01-13T10:16:42.527Z,1.73
2023-01-13T10:19:50.579Z,1.92
2023-01-13T10:23:05.298Z,1.83
2023-01-13T10:26:18.035Z,1.92
2023-01-13T10:29:27.992Z,1.25
2023-01-13T10:32:30.176Z,2.33
2023-01-13T10:35:53.682Z,2.00
2023-01-13T10:39:07.817Z,2.03
2023-01-13T10:42:15.233Z,2.20
2023-01-13T10:45:25.670Z,1.73
2023-01-13T10:48:59.729Z,1.73
2023-01-13T10:52:03.063Z,1.73
2023-01-13T10:55:26.248Z,1.80
2023-01-13T10:58:28.135Z,1.60
2023-01-13T11:01:30.501Z,1.48
2023-01-13T11:04:42.876Z,1.90
2023-01-13T11:07:57.924Z,2.00
2023-01-13T11:11:00.996Z,1.38
2023-01-13T11:14:25.556Z,1.50
2023-01-13T11:17:40.430Z,1.95
2023-01-13T11:20:47.580Z,1.80
2023-01-13T11:24:04.162Z,2.00
2023-01-13T11:27:20.555Z,1.50
2023-01-13T11:30:29.725Z,2.00
2023-01-13T11:33:55.638Z,1.67
2023-01-13T11:37:00.491Z,2.03
2023-01-13T11:40:28.587Z,1.85
2023-01-13T11:43:39.907Z,1.80
2023-01-13T11:46:41.877Z,1.85
2023-01-13T11:49:48.593Z,2.25
2023-01-13T11:53:04.754Z,2.08
2023-01-13T11:56:09.575Z,2.63
2023-01-13T11:59:17.255Z,1.80
2023-01-13T12:02:53.660Z,1.80
2023-01-13T12:06:33.965Z,1.60
2023-01-13T12:09:48.162Z,2.10
2023-01-13T12:13:15.976Z,1.90
2023-01-13T12:16:23.593Z,2.15
2023-01-13T12:19:28.286Z,2.13
2023-01-13T12:22:35.290Z,2.15
2023-01-13T12:25:47.170Z,1.95
2023-01-13T12:29:19.145Z,2.08
2023-01-13T12:32:28.470Z,2.38
2023-01-13T12:35:42.003Z,2.97
2023-01-13T12:38:51.786Z,2.00
2023-01-13T12:42:12.299Z,2.13
2023-01-13T12:45:14.046Z,2.50
2023-01-13T12:48:46.925Z,2.70
2023-01-13T12:51:54.762Z,2.00
2023-01-13T12:54:56.411Z,2.13
2023-01-13T12:58:10.691Z,2.10
2023-01-13T13:01:14.767Z,2.30
2023-01-13T13:04:49.232Z,2.28
2023-01-13T13:08:18.976Z,1.95
2023-01-13T13:11:58.107Z,2.05
2023-01-13T13:15:03.267Z,2.20
2023-01-13T13:18:06.193Z,2.55
2023-01-13T13:21:09.536Z,2.42
2023-01-13T13:24:11.642Z,2.22
2023-01-13T13:27:31.866Z,2.70
2023-01-13T13:30:37.648Z,2.85
2023-01-13T13:33:58.574Z,2.90
2023-01-13T13:40:39.605Z,2.70
2023-01-13T13:44:02.126Z,2.60
2023-01-13T13:47:06.345Z,2.40
2023-01-13T13:50:14.401Z,2.40
2023-01-13T13:53:19.414Z,3.00
2023-01-13T13:56:26.210Z,2.10
2023-01-13T13:59:33.819Z,2.33
2023-01-13T14:02:37.749Z,2.25
2023-01-13T14:05:39.513Z,2.30
2023-01-13T14:08:46.583Z,2.08
2023-01-13T14:12:04.039Z,1.80
2023-01-13T14:15:06.207Z,1.70
2023-01-13T14:18:21.617Z,2.25
2023-01-13T14:21:33.299Z,2.33
2023-01-13T14:24:46.579Z,2.17
2023-01-13T14:27:50.421Z,2.35
2023-01-13T14:30:53.504Z,2.72
2023-01-13T14:33:58.506Z,3.13
2023-01-13T14:37:03.024Z,1.60
2023-01-13T14:40:07.937Z,1.95
2023-01-13T14:43:15.930Z,1.70
2023-01-13T14:46:17.839Z,1.67
2023-01-13T14:49:24.091Z,2.40
2023-01-13T14:52:28.095Z,1.92
2023-01-13T14:55:41.522Z,1.60
2023-01-13T14:58:43.217Z,2.83
2023-01-13T15:01:44.920Z,1.50
2023-01-13T15:04:46.903Z,2.38
2023-01-13T15:08:17.135Z,1.92
2023-01-13T15:11:28.352Z,1.37
2023-01-13T15:14:33.803Z,1.40
2023-01-13T15:17:35.384Z,1.75
2023-01-13T15:20:37.123Z,2.03
2023-01-13T15:23:47.071Z,1.20
2023-01-13T15:26:48.823Z,1.27
2023-01-13T15:29:50.743Z,1.30
2023-01-13T15:32:59.147Z,1.52
2023-01-13T15:36:02.116Z,1.25
2023-01-13T15:39:04.006Z,1.80
2023-01-13T15:42:24.346Z,1.48
2023-01-13T15:45:45.752Z,1.40
2023-01-13T15:48:52.975Z,1.70
2023-01-13T15:51:56.452Z,1.13
2023-01-13T15:54:58.097Z,1.65
2023-01-13T15:58:00.045Z,1.30
2023-01-13T16:01:01.783Z,1.80
2023-01-13T16:04:03.535Z,1.60
2023-01-13T16:07:14.127Z,1.65
2023-01-13T16:10:20.655Z,1.45
2023-01-13T16:13:22.306Z,1.95
2023-01-13T16:16:27.007Z,1.50
2023-01-13T16:19:28.916Z,1.25
2023-01-13T16:22:30.675Z,1.38
2023-01-13T16:25:32.739Z,1.80
2023-01-13T16:28:36.007Z,1.52
2023-01-13T16:31:39.610Z,1.42
2023-01-13T16:34:42.147Z,1.70
2023-01-13T16:37:47.180Z,1.73
2023-01-13T16:40:48.959Z,1.55
2023-01-13T16:43:50.774Z,1.38
2023-01-13T16:46:52.419Z,1.40
2023-01-13T16:49:54.187Z,1.85
2023-01-13T16:52:55.881Z,1.42
2023-01-13T16:55:57.673Z,1.40
2023-01-13T16:59:04.618Z,1.48
2023-01-13T17:02:13.014Z,1.30
2023-01-13T17:05:15.156Z,1.65
2023-01-13T17:08:18.377Z,1.20
2023-01-13T17:11:21.201Z,1.50
2023-01-13T17:14:24.090Z,1.50
2023-01-13T17:17:28.956Z,2.20
2023-01-13T17:20:31.109Z,1.50
2023-01-13T17:23:33.433Z,2.20
2023-01-13T17:26:47.051Z,1.40
2023-01-13T17:29:51.167Z,1.40
2023-01-13T17:32:52.961Z,1.30
2023-01-13T17:35:56.056Z,2.30
2023-01-13T17:38:58.421Z,1.27
2023-01-13T17:42:00.761Z,2.10
2023-01-13T17:45:02.370Z,1.73
2023-01-13T17:48:06.211Z,1.48
2023-01-13T17:51:11.505Z,1.52
2023-01-13T17:54:13.229Z,1.63
2023-01-13T17:57:15.280Z,1.70
2023-01-13T18:00:17.539Z,1.60
2023-01-13T18:03:19.310Z,2.20
2023-01-13T18:06:23.578Z,2.08
2023-01-13T18:09:26.737Z,1.80
2023-01-13T18:12:28.410Z,1.80
2023-01-13T18:15:30.427Z,1.77
2023-01-13T18:18:32.041Z,2.58
2023-01-13T18:21:52.314Z,2.30
2023-01-13T18:25:12.328Z,1.98
2023-01-13T18:28:13.952Z,2.23
2023-01-13T18:31:15.601Z,2.40
2023-01-13T18:34:17.244Z,2.25
2023-01-13T18:37:18.908Z,2.35
2023-01-13T18:40:20.547Z,2.55
2023-01-13T18:43:22.225Z,2.40
2023-01-13T18:46:23.812Z,1.70
2023-01-13T18:49:25.824Z,1.70
2023-01-13T18:52:28.312Z,2.08
2023-01-13T18:55:30.193Z,2.00
2023-01-13T18:58:33.209Z,1.80
2023-01-13T19:01:37.001Z,1.60
2023-01-13T19:04:38.692Z,1.50
2023-01-13T19:07:40.396Z,1.60
2023-01-13T19:10:42.366Z,1.55
2023-01-13T19:13:43.994Z,1.00
2023-01-13T19:16:45.807Z,1.45
2023-01-13T19:19:53.816Z,0.73
2023-01-13T19:22:55.467Z,1.20
2023-01-13T19:26:01.599Z,1.25
2023-01-13T19:29:03.240Z,1.15
2023-01-13T19:32:06.636Z,1.60
2023-01-13T19:35:09.039Z,1.45
2023-01-13T19:38:10.663Z,1.60
2023-01-13T19:41:32.329Z,1.65
2023-01-13T19:44:53.329Z,2.13
2023-01-13T19:50:58.961Z,3.13
2023-01-13T19:54:01.478Z,3.08
2023-01-13T19:57:03.854Z,2.25
2023-01-13T20:00:07.948Z,2.55
2023-01-13T20:03:24.182Z,2.75
2023-01-13T20:06:26.021Z,3.50
2023-01-13T20:09:29.543Z,3.47
2023-01-13T20:12:31.258Z,2.90
2023-01-13T20:15:32.942Z,2.63
2023-01-13T20:18:36.535Z,2.55
2023-01-13T20:21:39.885Z,2.58
2023-01-13T20:24:41.774Z,2.97
2023-01-13T20:27:44.417Z,2.67
2023-01-13T20:30:46.521Z,2.40
2023-01-13T20:33:54.264Z,2.70
2023-01-13T20:36:56.520Z,2.42
2023-01-13T20:40:01.582Z,2.75
2023-01-13T20:43:03.874Z,1.92
2023-01-13T20:46:05.452Z,2.33
2023-01-13T20:49:09.523Z,2.30
2023-01-13T20:52:11.389Z,2.63
2023-01-13T20:55:13.665Z,1.80
2023-01-13T20:58:15.356Z,2.20
2023-01-13T21:01:17.289Z,2.30
2023-01-13T21:04:24.375Z,2.20
2023-01-13T21:07:26.041Z,1.83
2023-01-13T21:10:27.640Z,2.13
2023-01-13T21:13:47.967Z,1.80
2023-01-13T21:16:49.854Z,2.00
2023-01-13T21:19:51.529Z,1.83
2023-01-13T21:22:53.184Z,1.00
2023-01-13T21:25:54.919Z,1.60
2023-01-13T21:28:58.482Z,1.30
2023-01-13T21:32:00.627Z,1.58
2023-01-13T21:35:02.346Z,2.20
2023-01-13T21:38:04.159Z,1.40
2023-01-13T21:41:08.583Z,1.85
2023-01-13T21:44:34.409Z,1.15
2023-01-13T21:47:54.259Z,1.45
2023-01-13T21:51:01.513Z,1.48
2023-01-13T21:54:03.517Z,1.45
2023-01-13T21:57:05.164Z,1.52
2023-01-13T22:00:07.652Z,1.55
2023-01-13T22:03:10.621Z,1.30
2023-01-13T22:06:12.271Z,1.33
2023-01-13T22:09:13.992Z,1.65
2023-01-13T22:12:22.783Z,1.48
2023-01-13T22:15:27.320Z,0.93
2023-01-13T22:18:29.140Z,0.80
2023-01-13T22:21:30.942Z,0.90
2023-01-13T22:24:32.721Z,0.60
2023-01-13T22:27:40.715Z,0.50
2023-01-13T22:30:42.553Z,0.60
2023-01-13T22:33:47.991Z,0.70
2023-01-13T22:36:49.606Z,0.45
2023-01-13T22:39:51.327Z,0.50
2023-01-13T22:42:53.109Z,0.65
2023-01-13T22:46:07.774Z,0.85
2023-01-13T22:49:11.628Z,0.60
2023-01-13T22:52:19.464Z,0.80
2023-01-13T22:55:21.282Z,0.77
2023-01-13T22:58:23.893Z,1.10
2023-01-13T23:01:28.051Z,0.98
2023-01-13T23:04:29.973Z,0.75
2023-01-13T23:07:31.473Z,1.13
2023-01-13T23:10:34.012Z,1.38
2023-01-13T23:13:37.799Z,1.30
2023-01-13T23:16:40.785Z,1.70
2023-01-13T23:19:42.358Z,1.80
2023-01-13T23:22:44.222Z,1.95
2023-01-13T23:25:51.118Z,1.70
2023-01-13T23:28:52.832Z,2.00
2023-01-13T23:31:54.499Z,1.63
2023-01-13T23:34:56.164Z,1.90
2023-01-13T23:37:57.826Z,1.83
2023-01-13T23:40:59.752Z,2.03
2023-01-13T23:44:01.892Z,1.95
2023-01-13T23:47:03.707Z,1.50
2023-01-13T23:50:05.637Z,2.35
2023-01-13T23:53:07.408Z,1.77
2023-01-13T23:56:15.496Z,1.90
2023-01-13T23:59:17.327Z,1.60
